Arverne, New York
Current Conditions -  °F | °C
As of 7:51 PM on Thursday 18 Dec 2014 (Local Time) from KJFK Reporting Station
Broken Clouds Broken Clouds  
Wind Chill: 31°   Ceiling: 3200
Heat Index: 39°   Visibility: 10mi
Dew Point: 25°   Wind: 14mph
Humidity: 57%   Direction: 320°NW
Pressure: 29.98"   Gusts: 23mph
Location:  40.59°N, 73.8°W
Report Text: KJFK 190051Z 32012G20KT 10SM BKN032 04/M04 A2998 RMK AO2 SLP150 T00391039 $
Loading
Personal Weather Stations






























Interactive Weather Map New forecast layout! Learn more

10-Day Weather Forecast

Advertisements
Track Severe Weather on mobile